createdAt,value
2018-10-19T00:01:45.969Z,66.40
2018-10-19T00:04:14.349Z,67.00
2018-10-19T00:06:42.637Z,66.80
2018-10-19T00:09:11.844Z,66.40
2018-10-19T00:11:40.162Z,66.40
2018-10-19T00:14:08.615Z,66.50
2018-10-19T00:16:37.069Z,66.20
2018-10-19T00:19:05.593Z,66.20
2018-10-19T00:21:34.016Z,66.40
2018-10-19T00:24:02.364Z,66.40
2018-10-19T00:26:31.000Z,65.90
2018-10-19T00:28:59.466Z,66.30
2018-10-19T00:31:28.061Z,66.00
2018-10-19T00:33:56.425Z,66.10
2018-10-19T00:36:25.122Z,66.00
2018-10-19T00:38:53.555Z,66.30
2018-10-19T00:41:21.957Z,66.10
2018-10-19T00:43:50.412Z,66.30
2018-10-19T00:46:19.419Z,66.20
2018-10-19T00:48:47.855Z,66.10
2018-10-19T00:51:16.282Z,66.30
2018-10-19T00:53:44.644Z,66.30
2018-10-19T00:56:12.938Z,66.30
2018-10-19T00:58:41.423Z,66.20
2018-10-19T01:01:09.750Z,66.40
2018-10-19T01:03:38.388Z,66.70
2018-10-19T01:06:06.738Z,66.20
2018-10-19T01:08:35.147Z,66.40
2018-10-19T01:11:03.669Z,66.30
2018-10-19T01:13:32.076Z,66.50
2018-10-19T01:16:00.640Z,66.80
2018-10-19T01:18:29.114Z,66.40
2018-10-19T01:20:57.636Z,66.50
2018-10-19T01:23:26.112Z,66.80
2018-10-19T01:25:54.494Z,66.60
2018-10-19T01:28:22.832Z,66.60
2018-10-19T01:30:51.515Z,66.90
2018-10-19T01:33:20.057Z,66.50
2018-10-19T01:35:48.429Z,66.80
2018-10-19T01:38:17.145Z,67.60
2018-10-19T01:40:45.517Z,67.10
2018-10-19T01:43:13.946Z,66.70
2018-10-19T01:45:47.769Z,67.00
2018-10-19T01:48:16.493Z,66.80
2018-10-19T01:50:45.353Z,66.70
2018-10-19T01:53:13.859Z,66.80
2018-10-19T01:55:42.253Z,67.00
2018-10-19T01:58:10.786Z,67.00
2018-10-19T02:00:39.166Z,67.10
2018-10-19T02:03:07.875Z,67.00
2018-10-19T02:05:36.345Z,66.80
2018-10-19T02:08:05.098Z,66.80
2018-10-19T02:10:33.522Z,67.10
2018-10-19T02:13:01.994Z,67.50
2018-10-19T02:15:30.400Z,67.50
2018-10-19T02:17:59.024Z,67.20
2018-10-19T02:20:27.589Z,67.30
2018-10-19T02:22:56.279Z,67.20
2018-10-19T02:25:24.603Z,67.70
2018-10-19T02:27:52.962Z,67.80
2018-10-19T02:30:21.289Z,67.30
2018-10-19T02:32:49.834Z,67.20
2018-10-19T02:35:18.528Z,67.70
2018-10-19T02:37:46.933Z,68.00
2018-10-19T02:40:15.438Z,67.50
2018-10-19T02:42:43.849Z,67.60
2018-10-19T02:45:12.721Z,67.90
2018-10-19T02:47:41.086Z,68.10
2018-10-19T02:50:10.101Z,68.40
2018-10-19T02:52:39.121Z,68.40
2018-10-19T02:55:09.844Z,69.00
2018-10-19T02:57:38.258Z,69.20
2018-10-19T03:00:09.524Z,69.20
2018-10-19T03:02:38.093Z,68.70
2018-10-19T03:05:07.358Z,69.00
2018-10-19T03:07:36.072Z,68.60
2018-10-19T03:10:05.401Z,68.90
2018-10-19T03:12:34.492Z,68.20
2018-10-19T03:15:03.184Z,68.70
2018-10-19T03:17:31.950Z,68.90
2018-10-19T03:20:00.401Z,70.00
2018-10-19T03:22:28.820Z,68.80
2018-10-19T03:24:57.370Z,68.70
2018-10-19T03:27:25.779Z,68.90
2018-10-19T03:29:54.367Z,68.80
2018-10-19T03:32:22.724Z,68.70
2018-10-19T03:34:51.185Z,68.50
2018-10-19T03:37:19.816Z,69.40
2018-10-19T03:39:48.244Z,69.50
2018-10-19T03:42:16.733Z,69.30
2018-10-19T03:44:45.321Z,69.30
2018-10-19T03:47:14.100Z,69.70
2018-10-19T03:49:42.710Z,70.50
2018-10-19T03:52:11.435Z,70.30
2018-10-19T03:54:39.961Z,69.80
2018-10-19T03:57:10.356Z,70.10
2018-10-19T03:59:38.993Z,70.40
2018-10-19T04:02:07.573Z,70.60
2018-10-19T04:04:35.950Z,69.80
2018-10-19T04:07:04.570Z,69.20
2018-10-19T04:09:34.150Z,69.30
2018-10-19T04:12:10.742Z,69.40
2018-10-19T04:14:39.411Z,69.50
2018-10-19T04:17:08.247Z,70.20
2018-10-19T04:19:36.617Z,69.70
2018-10-19T04:22:05.090Z,70.00
2018-10-19T04:24:33.812Z,70.00
2018-10-19T04:27:02.367Z,69.70
2018-10-19T04:29:30.641Z,69.80
2018-10-19T04:31:59.010Z,69.90
2018-10-19T04:34:29.071Z,69.50
2018-10-19T04:37:05.919Z,69.50
2018-10-19T04:39:34.851Z,69.40
2018-10-19T04:42:04.255Z,69.60
2018-10-19T04:44:32.584Z,69.50
2018-10-19T04:47:01.245Z,69.50
2018-10-19T04:49:29.789Z,69.30
2018-10-19T04:51:59.511Z,69.90
2018-10-19T04:54:27.996Z,69.50
2018-10-19T04:56:56.479Z,69.60
2018-10-19T04:59:25.025Z,69.20
2018-10-19T05:01:53.571Z,69.00
2018-10-19T05:04:22.318Z,69.50
2018-10-19T05:06:51.490Z,70.70
2018-10-19T05:09:20.254Z,69.80
2018-10-19T05:11:48.726Z,69.60
2018-10-19T05:14:17.366Z,69.40
2018-10-19T05:16:47.206Z,69.60
2018-10-19T05:19:15.802Z,69.70
2018-10-19T05:21:44.989Z,70.00
2018-10-19T05:24:13.517Z,69.40
2018-10-19T05:26:42.089Z,70.10
2018-10-19T05:31:54.343Z,70.20
2018-10-19T05:34:23.848Z,69.90
2018-10-19T05:36:52.457Z,70.40
2018-10-19T05:39:21.530Z,69.50
2018-10-19T05:41:50.081Z,70.10
2018-10-19T05:44:18.514Z,69.50
2018-10-19T05:46:47.332Z,69.80
2018-10-19T05:49:15.780Z,69.50
2018-10-19T05:51:44.512Z,69.70
2018-10-19T05:54:13.141Z,70.20
2018-10-19T05:56:43.890Z,70.00
2018-10-19T05:59:13.226Z,69.60
2018-10-19T06:01:42.728Z,69.60
2018-10-19T06:04:11.510Z,70.30
2018-10-19T06:09:19.177Z,70.00
2018-10-19T06:11:49.036Z,69.40
2018-10-19T06:14:17.786Z,69.40
2018-10-19T06:16:46.290Z,69.40
2018-10-19T06:19:14.843Z,69.50
2018-10-19T06:21:43.628Z,69.50
2018-10-19T06:24:12.150Z,69.80
2018-10-19T06:26:41.854Z,70.00
2018-10-19T06:29:10.318Z,69.60
2018-10-19T06:31:38.941Z,69.50
2018-10-19T06:34:07.401Z,70.10
2018-10-19T06:36:35.950Z,69.40
2018-10-19T06:41:47.367Z,69.70
2018-10-19T06:44:16.170Z,70.30
2018-10-19T06:46:44.678Z,70.10
2018-10-19T06:49:14.810Z,70.00
2018-10-19T06:51:45.049Z,69.90
2018-10-19T06:54:16.514Z,70.10
2018-10-19T06:56:46.618Z,70.00
2018-10-19T06:59:15.663Z,70.30
2018-10-19T07:01:44.345Z,70.20
2018-10-19T07:04:12.760Z,70.20
2018-10-19T07:06:41.738Z,70.00
2018-10-19T07:09:10.529Z,70.10
2018-10-19T07:11:39.077Z,70.60
2018-10-19T07:14:08.918Z,70.60
2018-10-19T07:16:38.188Z,70.80
2018-10-19T07:19:06.805Z,70.40
2018-10-19T07:21:35.199Z,71.40
2018-10-19T07:24:04.196Z,70.70
2018-10-19T07:26:32.951Z,71.20
2018-10-19T07:29:01.599Z,70.80
2018-10-19T07:31:30.977Z,71.20
2018-10-19T07:33:59.748Z,71.20
2018-10-19T07:36:28.432Z,71.20
2018-10-19T07:38:56.988Z,71.30
2018-10-19T07:41:25.697Z,71.20
2018-10-19T07:43:54.230Z,71.30
2018-10-19T07:46:22.900Z,71.30
2018-10-19T07:48:51.388Z,71.20
2018-10-19T07:51:20.025Z,71.20
2018-10-19T07:53:48.471Z,72.40
2018-10-19T07:56:16.962Z,71.40
2018-10-19T07:58:45.439Z,71.20
2018-10-19T08:01:14.027Z,71.60
2018-10-19T08:03:42.512Z,71.50
2018-10-19T08:06:10.892Z,71.30
2018-10-19T08:08:39.339Z,71.10
2018-10-19T08:11:07.996Z,71.20
2018-10-19T08:13:36.283Z,71.30
2018-10-19T08:16:04.665Z,71.20
2018-10-19T08:18:33.398Z,71.10
2018-10-19T08:21:02.213Z,71.10
2018-10-19T08:23:30.881Z,70.90
2018-10-19T08:25:59.361Z,70.60
2018-10-19T08:28:28.419Z,70.90
2018-10-19T08:30:56.951Z,70.90
2018-10-19T08:33:26.092Z,71.00
2018-10-19T08:35:54.738Z,70.80
2018-10-19T08:38:23.178Z,71.00
2018-10-19T08:40:51.793Z,70.90
2018-10-19T08:43:20.281Z,71.10
2018-10-19T08:45:48.892Z,71.30
2018-10-19T08:48:17.240Z,71.30
2018-10-19T08:50:45.551Z,71.00
2018-10-19T08:53:14.050Z,71.40
2018-10-19T08:55:49.121Z,71.20
2018-10-19T08:58:17.561Z,70.90
2018-10-19T09:00:46.533Z,70.90
2018-10-19T09:03:15.151Z,70.80
2018-10-19T09:05:43.514Z,70.60
2018-10-19T09:08:11.932Z,70.40
2018-10-19T09:10:40.312Z,69.90
2018-10-19T09:13:08.829Z,70.40
2018-10-19T09:15:37.255Z,70.50
2018-10-19T09:18:05.628Z,70.60
2018-10-19T09:20:34.050Z,70.60
2018-10-19T09:23:02.602Z,70.60
2018-10-19T09:25:31.193Z,71.00
2018-10-19T09:27:59.648Z,70.30
2018-10-19T09:30:28.081Z,70.10
2018-10-19T09:32:56.542Z,69.80
2018-10-19T09:35:24.916Z,69.50
2018-10-19T09:37:53.397Z,69.80
2018-10-19T09:40:21.885Z,68.90
2018-10-19T09:42:50.247Z,69.50
2018-10-19T09:45:19.264Z,69.70
2018-10-19T09:47:47.619Z,69.80
2018-10-19T09:50:16.612Z,69.50
2018-10-19T09:52:45.787Z,69.50
2018-10-19T09:55:14.351Z,69.00
2018-10-19T09:57:42.756Z,69.70
2018-10-19T10:00:17.512Z,69.80
2018-10-19T10:02:46.725Z,69.70
2018-10-19T10:05:15.096Z,69.90
2018-10-19T10:07:43.450Z,68.30
2018-10-19T10:10:11.870Z,69.80
2018-10-19T10:12:40.272Z,69.70
2018-10-19T10:15:08.844Z,69.60
2018-10-19T10:17:37.049Z,69.20
2018-10-19T10:20:06.058Z,69.30
2018-10-19T10:22:34.462Z,69.20
2018-10-19T10:25:02.916Z,69.00
2018-10-19T10:27:31.308Z,69.30
2018-10-19T10:29:59.667Z,69.30
2018-10-19T10:32:28.053Z,69.10
2018-10-19T10:34:56.481Z,69.40
2018-10-19T10:37:24.844Z,68.70
2018-10-19T10:39:53.294Z,67.90
2018-10-19T10:42:21.617Z,68.50
2018-10-19T10:44:49.914Z,68.80
2018-10-19T10:47:18.365Z,68.10
2018-10-19T10:49:46.796Z,68.40
2018-10-19T10:52:15.460Z,67.70
2018-10-19T10:54:43.789Z,68.20
2018-10-19T10:57:12.373Z,68.00
2018-10-19T10:59:40.749Z,67.80
2018-10-19T11:02:09.166Z,67.40
2018-10-19T11:04:37.478Z,67.60
2018-10-19T11:07:05.903Z,68.30
2018-10-19T11:09:34.189Z,68.20
2018-10-19T11:12:02.541Z,68.40
2018-10-19T11:14:30.955Z,67.80
2018-10-19T11:16:59.480Z,67.10
2018-10-19T11:19:27.891Z,66.60
2018-10-19T11:21:56.318Z,66.40
2018-10-19T11:24:24.873Z,66.30
2018-10-19T11:26:53.326Z,66.30
2018-10-19T11:29:21.677Z,67.10
2018-10-19T11:31:50.058Z,66.00
2018-10-19T11:34:18.440Z,66.40
2018-10-19T11:36:46.790Z,66.20
2018-10-19T11:39:15.215Z,66.40
2018-10-19T11:41:43.587Z,64.50
2018-10-19T11:44:11.905Z,65.10
2018-10-19T11:46:40.327Z,64.80
2018-10-19T11:49:08.667Z,65.20
2018-10-19T11:51:37.036Z,64.80
2018-10-19T11:54:05.341Z,63.40
2018-10-19T11:56:33.686Z,65.60
2018-10-19T11:59:02.113Z,66.50
2018-10-19T12:01:31.346Z,66.20
2018-10-19T12:03:59.764Z,66.40
2018-10-19T12:06:28.213Z,64.00
2018-10-19T12:08:56.872Z,63.80
2018-10-19T12:11:25.283Z,64.20
2018-10-19T12:13:53.637Z,64.90
2018-10-19T12:16:22.060Z,65.30
2018-10-19T12:18:50.581Z,61.80
2018-10-19T12:21:18.984Z,64.20
2018-10-19T12:23:47.357Z,63.80
2018-10-19T12:26:15.849Z,63.80
2018-10-19T12:28:44.233Z,61.80
2018-10-19T12:31:12.591Z,64.30
2018-10-19T12:33:41.352Z,64.10
2018-10-19T12:36:09.807Z,64.80
2018-10-19T12:38:38.129Z,65.10
2018-10-19T12:41:06.963Z,64.90
2018-10-19T12:43:35.220Z,65.40
2018-10-19T12:46:25.336Z,65.20
2018-10-19T12:48:54.117Z,65.60
2018-10-19T12:51:22.426Z,64.10
2018-10-19T12:53:50.828Z,63.70
2018-10-19T12:56:20.140Z,61.60
2018-10-19T12:58:49.625Z,63.50
2018-10-19T13:01:18.018Z,62.50
2018-10-19T13:03:46.368Z,62.20
2018-10-19T13:06:15.411Z,61.00
2018-10-19T13:08:43.695Z,61.20
2018-10-19T13:11:12.185Z,62.20
2018-10-19T13:13:40.809Z,63.00
2018-10-19T13:16:09.165Z,62.30
2018-10-19T13:18:37.524Z,61.80
2018-10-19T13:21:05.866Z,62.80
2018-10-19T13:23:34.899Z,62.40
2018-10-19T13:26:03.628Z,63.10
2018-10-19T13:28:32.127Z,63.20
2018-10-19T13:31:00.580Z,63.60
2018-10-19T13:33:29.158Z,63.00
2018-10-19T13:35:57.626Z,63.20
2018-10-19T13:38:26.002Z,62.00
2018-10-19T13:40:54.888Z,61.60
2018-10-19T13:43:23.744Z,62.50
2018-10-19T13:45:52.517Z,62.20
2018-10-19T13:48:21.432Z,62.00
2018-10-19T13:50:49.808Z,62.60
2018-10-19T13:53:18.083Z,62.00
2018-10-19T13:55:46.404Z,62.10
2018-10-19T13:58:14.753Z,62.30
2018-10-19T14:00:43.116Z,62.70
2018-10-19T14:03:11.464Z,61.80
2018-10-19T14:05:39.980Z,61.60
2018-10-19T14:08:08.096Z,61.60
2018-10-19T14:10:36.474Z,60.90
2018-10-19T14:13:04.931Z,60.70
2018-10-19T14:15:33.251Z,61.80
2018-10-19T14:18:01.582Z,60.00
2018-10-19T14:20:30.315Z,60.70
2018-10-19T14:22:58.737Z,61.50
2018-10-19T14:25:27.101Z,61.30
2018-10-19T14:27:55.422Z,60.30
2018-10-19T14:30:23.731Z,60.40
2018-10-19T14:32:52.188Z,61.60
2018-10-19T14:35:20.472Z,61.80
2018-10-19T14:37:48.789Z,61.90
2018-10-19T14:40:19.417Z,60.90
2018-10-19T14:42:48.039Z,61.10
2018-10-19T14:45:17.476Z,60.90
2018-10-19T14:47:46.573Z,60.40
2018-10-19T14:50:16.206Z,61.40
2018-10-19T14:52:44.833Z,61.90
2018-10-19T14:55:14.503Z,61.30
2018-10-19T14:57:42.858Z,60.50
2018-10-19T15:00:13.173Z,60.80
2018-10-19T15:02:41.612Z,62.00
2018-10-19T15:05:11.726Z,61.40
2018-10-19T15:07:40.064Z,61.70
2018-10-19T15:10:12.405Z,60.80
2018-10-19T15:12:41.053Z,61.10
2018-10-19T15:15:12.606Z,61.30
2018-10-19T15:17:41.780Z,59.80
2018-10-19T15:20:10.956Z,61.50
2018-10-19T15:22:39.970Z,61.30
2018-10-19T15:25:10.143Z,60.60
2018-10-19T15:27:47.319Z,60.80
2018-10-19T15:30:17.392Z,60.20
2018-10-19T15:32:45.905Z,60.70
2018-10-19T15:35:14.297Z,60.50
2018-10-19T15:37:42.793Z,59.80
2018-10-19T15:40:11.956Z,60.40
2018-10-19T15:42:40.777Z,59.90
2018-10-19T15:45:10.821Z,60.50
2018-10-19T15:47:39.138Z,60.40
2018-10-19T15:50:08.111Z,60.40
2018-10-19T15:52:36.423Z,61.00
2018-10-19T15:55:05.321Z,60.90
2018-10-19T15:57:33.801Z,60.00
2018-10-19T16:00:02.164Z,60.70
2018-10-19T16:02:30.541Z,60.30
2018-10-19T16:04:59.026Z,60.60
2018-10-19T16:07:27.592Z,60.80
2018-10-19T16:09:56.193Z,60.90
2018-10-19T16:12:24.545Z,60.80
2018-10-19T16:14:53.035Z,60.60
2018-10-19T16:17:21.529Z,60.30
2018-10-19T16:19:49.934Z,60.40
2018-10-19T16:22:18.251Z,60.50
2018-10-19T16:24:46.647Z,60.60
2018-10-19T16:27:15.187Z,60.90
2018-10-19T16:29:43.614Z,60.80
2018-10-19T16:32:11.946Z,61.00
2018-10-19T16:34:47.275Z,60.90
2018-10-19T16:37:15.594Z,61.10
2018-10-19T16:39:43.959Z,61.10
2018-10-19T16:42:12.324Z,61.20
2018-10-19T16:44:40.681Z,61.30
2018-10-19T16:47:09.052Z,61.60
2018-10-19T16:49:37.348Z,61.20
2018-10-19T16:52:05.851Z,61.30
2018-10-19T16:54:34.121Z,61.50
2018-10-19T16:57:02.490Z,61.50
2018-10-19T16:59:30.963Z,61.50
2018-10-19T17:02:04.130Z,61.60
2018-10-19T17:04:34.003Z,61.70
2018-10-19T17:07:02.477Z,61.60
2018-10-19T17:09:31.799Z,61.60
2018-10-19T17:12:00.280Z,61.70
2018-10-19T17:14:29.122Z,61.90
2018-10-19T17:16:58.793Z,61.80
2018-10-19T17:19:27.547Z,61.70
2018-10-19T17:21:55.994Z,61.70
2018-10-19T17:24:24.496Z,62.10
2018-10-19T17:26:52.794Z,61.90
2018-10-19T17:29:21.147Z,61.90
2018-10-19T17:31:49.595Z,61.90
2018-10-19T17:34:18.068Z,62.00
2018-10-19T17:36:46.477Z,62.00
2018-10-19T17:39:15.089Z,62.00
2018-10-19T17:41:43.473Z,62.60
2018-10-19T17:44:11.831Z,62.30
2018-10-19T17:46:40.248Z,63.30
2018-10-19T17:49:08.631Z,62.10
2018-10-19T17:51:37.089Z,62.10
2018-10-19T17:54:05.840Z,62.50
2018-10-19T17:56:34.194Z,63.30
2018-10-19T17:59:02.702Z,62.40
2018-10-19T18:01:31.236Z,62.30
2018-10-19T18:03:59.593Z,62.40
2018-10-19T18:06:27.956Z,62.40
2018-10-19T18:08:56.508Z,62.40
2018-10-19T18:11:24.921Z,62.50
2018-10-19T18:13:53.347Z,62.50
2018-10-19T18:16:22.252Z,62.70
2018-10-19T18:18:50.625Z,62.70
2018-10-19T18:21:19.127Z,62.80
2018-10-19T18:23:47.835Z,62.80
2018-10-19T18:26:16.187Z,62.80
2018-10-19T18:28:44.968Z,62.80
2018-10-19T18:31:13.455Z,62.70
2018-10-19T18:33:41.797Z,62.90
2018-10-19T18:36:10.284Z,62.80
2018-10-19T18:38:38.695Z,63.40
2018-10-19T18:41:07.204Z,63.50
2018-10-19T18:43:35.537Z,63.30
2018-10-19T18:46:04.117Z,63.60
2018-10-19T18:48:32.645Z,63.40
2018-10-19T18:51:01.090Z,63.40
2018-10-19T18:53:29.598Z,63.80
2018-10-19T18:55:58.054Z,64.10
2018-10-19T18:58:27.131Z,63.80
2018-10-19T19:00:55.559Z,64.10
2018-10-19T19:03:24.052Z,64.10
2018-10-19T19:05:52.471Z,64.10
2018-10-19T19:08:21.509Z,64.10
2018-10-19T19:10:50.208Z,64.10
2018-10-19T19:13:23.858Z,64.10
2018-10-19T19:15:52.594Z,63.90
2018-10-19T19:18:21.178Z,64.30
2018-10-19T19:20:50.401Z,64.40
2018-10-19T19:23:19.325Z,64.20
2018-10-19T19:25:56.471Z,64.20
2018-10-19T19:28:25.253Z,64.20
2018-10-19T19:30:53.574Z,64.50
2018-10-19T19:33:27.401Z,64.40
2018-10-19T19:35:56.365Z,64.20
2018-10-19T19:38:24.841Z,64.60
2018-10-19T19:40:58.847Z,64.20
2018-10-19T19:43:27.402Z,64.10
2018-10-19T19:45:55.829Z,64.10
2018-10-19T19:48:29.722Z,64.10
2018-10-19T19:50:58.469Z,63.80
2018-10-19T19:53:27.108Z,63.90
2018-10-19T19:55:55.908Z,63.90
2018-10-19T19:58:25.881Z,63.80
2018-10-19T20:00:54.259Z,63.80
2018-10-19T20:03:22.657Z,63.80
2018-10-19T20:05:51.184Z,63.80
2018-10-19T20:08:19.827Z,63.80
2018-10-19T20:10:48.180Z,63.70
2018-10-19T20:13:16.638Z,63.80
2018-10-19T20:15:45.502Z,63.90
2018-10-19T20:18:14.276Z,64.50
2018-10-19T20:20:42.607Z,64.00
2018-10-19T20:23:11.103Z,63.90
2018-10-19T20:25:39.489Z,64.00
2018-10-19T20:28:07.851Z,64.80
2018-10-19T20:30:36.187Z,64.10
2018-10-19T20:33:04.743Z,64.20
2018-10-19T20:35:33.156Z,64.10
2018-10-19T20:38:01.597Z,64.20
2018-10-19T20:40:30.006Z,64.30
2018-10-19T20:42:58.390Z,64.00
2018-10-19T20:45:27.683Z,64.20
2018-10-19T20:47:57.018Z,64.20
2018-10-19T20:50:25.359Z,64.30
2018-10-19T20:52:53.875Z,64.50
2018-10-19T20:55:22.401Z,64.20
2018-10-19T20:57:50.940Z,64.40
2018-10-19T21:00:19.366Z,64.30
2018-10-19T21:02:47.843Z,64.30
2018-10-19T21:05:16.202Z,64.40
2018-10-19T21:07:44.794Z,64.50
2018-10-19T21:10:14.478Z,64.60
2018-10-19T21:12:42.880Z,64.50
2018-10-19T21:15:13.588Z,64.50
2018-10-19T21:17:42.682Z,64.50
2018-10-19T21:20:12.437Z,64.30
2018-10-19T21:22:40.732Z,64.30
2018-10-19T21:25:10.709Z,64.60
2018-10-19T21:27:40.102Z,64.40
2018-10-19T21:30:10.054Z,64.50
2018-10-19T21:32:38.642Z,64.40
2018-10-19T21:37:49.353Z,64.50
2018-10-19T21:40:18.041Z,64.40
2018-10-19T21:42:46.885Z,65.40
2018-10-19T21:45:15.509Z,64.50
2018-10-19T21:47:44.060Z,64.80
2018-10-19T21:50:12.481Z,64.50
2018-10-19T21:52:41.731Z,64.50
2018-10-19T21:55:11.376Z,64.50
2018-10-19T21:57:40.255Z,64.60
2018-10-19T22:00:09.845Z,64.60
2018-10-19T22:02:38.503Z,64.70
2018-10-19T22:05:07.496Z,64.60
2018-10-19T22:07:36.011Z,64.70
2018-10-19T22:10:04.705Z,65.00
2018-10-19T22:12:33.162Z,64.80
2018-10-19T22:15:02.678Z,64.90
2018-10-19T22:17:31.249Z,65.00
2018-10-19T22:20:01.176Z,64.90
2018-10-19T22:25:07.021Z,64.80
2018-10-19T22:27:35.534Z,64.90
2018-10-19T22:30:04.095Z,65.00
2018-10-19T22:32:32.582Z,65.10
2018-10-19T22:35:01.632Z,64.20
2018-10-19T22:37:30.265Z,64.90
2018-10-19T22:39:58.945Z,64.90
2018-10-19T22:42:27.413Z,65.00
2018-10-19T22:44:56.950Z,65.10
2018-10-19T22:47:25.481Z,65.10
2018-10-19T22:49:54.183Z,65.00
2018-10-19T22:52:22.481Z,65.00
2018-10-19T22:54:51.667Z,65.10
2018-10-19T22:57:20.344Z,65.20
2018-10-19T22:59:49.086Z,65.10
2018-10-19T23:02:17.505Z,65.30
2018-10-19T23:04:46.043Z,65.30
2018-10-19T23:07:14.806Z,65.30
2018-10-19T23:09:43.247Z,65.20
2018-10-19T23:12:11.597Z,65.10
2018-10-19T23:14:40.133Z,65.30
2018-10-19T23:17:08.866Z,65.40
2018-10-19T23:19:37.527Z,65.20
2018-10-19T23:22:06.110Z,65.40
2018-10-19T23:24:34.509Z,65.20
2018-10-19T23:27:03.063Z,65.30
2018-10-19T23:29:31.633Z,65.20
2018-10-19T23:34:39.712Z,65.40
2018-10-19T23:37:08.708Z,65.30
2018-10-19T23:39:36.955Z,65.40
2018-10-19T23:42:05.694Z,65.50
2018-10-19T23:44:34.175Z,65.40
2018-10-19T23:49:51.688Z,66.50
2018-10-19T23:52:21.195Z,65.40
2018-10-19T23:54:50.943Z,65.40
2018-10-19T23:57:20.933Z,65.40
2018-10-19T23:59:51.486Z,65.80
